sensor_id;sensor_type;location;lat;lon;timestamp;P1;durP1;ratioP1;P2;durP2;ratioP2
59263;SDS011;45030;42.720;23.344;2022-12-11T00:00:00;23.95;;;13.77;;
59263;SDS011;45030;42.720;23.344;2022-12-11T00:02:27;30.33;;;15.35;;
59263;SDS011;45030;42.720;23.344;2022-12-11T00:04:52;18.73;;;10.63;;
59263;SDS011;45030;42.720;23.344;2022-12-11T00:07:17;21.42;;;13.55;;
59263;SDS011;45030;42.720;23.344;2022-12-11T00:09:43;20.88;;;10.32;;
59263;SDS011;45030;42.720;23.344;2022-12-11T00:12:08;22.63;;;12.65;;
59263;SDS011;45030;42.720;23.344;2022-12-11T00:14:33;23.98;;;14.80;;
59263;SDS011;45030;42.720;23.344;2022-12-11T00:16:59;22.77;;;15.35;;
59263;SDS011;45030;42.720;23.344;2022-12-11T00:19:24;26.45;;;15.48;;
59263;SDS011;45030;42.720;23.344;2022-12-11T00:21:49;22.98;;;15.40;;
59263;SDS011;45030;42.720;23.344;2022-12-11T00:24:14;24.77;;;13.48;;
59263;SDS011;45030;42.720;23.344;2022-12-11T00:26:40;22.48;;;14.10;;
59263;SDS011;45030;42.720;23.344;2022-12-11T00:29:05;25.85;;;13.27;;
59263;SDS011;45030;42.720;23.344;2022-12-11T00:31:32;16.65;;;9.13;;
59263;SDS011;45030;42.720;23.344;2022-12-11T00:33:57;19.25;;;10.52;;
59263;SDS011;45030;42.720;23.344;2022-12-11T00:36:23;18.58;;;9.52;;
59263;SDS011;45030;42.720;23.344;2022-12-11T00:38:49;20.02;;;10.38;;
59263;SDS011;45030;42.720;23.344;2022-12-11T00:41:15;20.25;;;11.25;;
59263;SDS011;45030;42.720;23.344;2022-12-11T00:43:40;24.98;;;11.07;;
59263;SDS011;45030;42.720;23.344;2022-12-11T00:46:05;16.55;;;9.20;;
59263;SDS011;45030;42.720;23.344;2022-12-11T00:48:31;15.93;;;9.10;;
59263;SDS011;45030;42.720;23.344;2022-12-11T00:50:56;20.98;;;11.77;;
59263;SDS011;45030;42.720;23.344;2022-12-11T00:53:22;18.48;;;9.65;;
59263;SDS011;45030;42.720;23.344;2022-12-11T00:55:47;17.30;;;10.15;;
59263;SDS011;45030;42.720;23.344;2022-12-11T00:58:12;15.60;;;9.40;;
59263;SDS011;45030;42.720;23.344;2022-12-11T01:00:38;16.85;;;10.98;;
59263;SDS011;45030;42.720;23.344;2022-12-11T01:03:03;22.58;;;11.52;;
59263;SDS011;45030;42.720;23.344;2022-12-11T01:05:28;15.98;;;9.77;;
59263;SDS011;45030;42.720;23.344;2022-12-11T01:07:54;21.33;;;12.73;;
59263;SDS011;45030;42.720;23.344;2022-12-11T01:10:19;17.33;;;10.05;;
59263;SDS011;45030;42.720;23.344;2022-12-11T01:13:00;15.27;;;9.40;;
59263;SDS011;45030;42.720;23.344;2022-12-11T01:15:27;16.33;;;11.20;;
59263;SDS011;45030;42.720;23.344;2022-12-11T01:17:53;13.85;;;8.95;;
59263;SDS011;45030;42.720;23.344;2022-12-11T01:20:19;21.05;;;9.20;;
59263;SDS011;45030;42.720;23.344;2022-12-11T01:22:44;13.35;;;8.13;;
59263;SDS011;45030;42.720;23.344;2022-12-11T01:25:10;14.43;;;8.70;;
59263;SDS011;45030;42.720;23.344;2022-12-11T01:27:36;19.92;;;12.25;;
59263;SDS011;45030;42.720;23.344;2022-12-11T01:30:01;16.48;;;8.60;;
59263;SDS011;45030;42.720;23.344;2022-12-11T01:32:27;22.38;;;11.77;;
59263;SDS011;45030;42.720;23.344;2022-12-11T01:34:52;15.02;;;8.57;;
59263;SDS011;45030;42.720;23.344;2022-12-11T01:37:18;18.13;;;9.60;;
59263;SDS011;45030;42.720;23.344;2022-12-11T01:39:43;15.00;;;9.23;;
59263;SDS011;45030;42.720;23.344;2022-12-11T01:42:09;9.80;;;4.05;;
59263;SDS011;45030;42.720;23.344;2022-12-11T01:47:04;10.75;;;5.47;;
59263;SDS011;45030;42.720;23.344;2022-12-11T01:49:30;9.40;;;6.28;;
59263;SDS011;45030;42.720;23.344;2022-12-11T01:51:56;12.23;;;5.93;;
59263;SDS011;45030;42.720;23.344;2022-12-11T01:54:23;13.05;;;7.45;;
59263;SDS011;45030;42.720;23.344;2022-12-11T01:56:50;14.77;;;6.85;;
59263;SDS011;45030;42.720;23.344;2022-12-11T01:59:18;12.27;;;6.10;;
59263;SDS011;45030;42.720;23.344;2022-12-11T02:04:10;11.38;;;6.90;;
59263;SDS011;45030;42.720;23.344;2022-12-11T02:06:37;10.10;;;6.03;;
59263;SDS011;45030;42.720;23.344;2022-12-11T02:09:03;9.25;;;5.63;;
59263;SDS011;45030;42.720;23.344;2022-12-11T02:11:32;1.13;;;0.85;;
59263;SDS011;45030;42.720;23.344;2022-12-11T02:14:03;1.60;;;1.02;;
59263;SDS011;45030;42.720;23.344;2022-12-11T02:16:34;5.72;;;2.42;;
59263;SDS011;45030;42.720;23.344;2022-12-11T02:19:17;4.05;;;1.20;;
59263;SDS011;45030;42.720;23.344;2022-12-11T02:21:44;3.85;;;2.00;;
59263;SDS011;45030;42.720;23.344;2022-12-11T02:32:00;2.13;;;1.10;;
59263;SDS011;45030;42.720;23.344;2022-12-11T02:34:31;1.85;;;0.70;;
59263;SDS011;45030;42.720;23.344;2022-12-11T02:37:01;1.05;;;0.68;;
59263;SDS011;45030;42.720;23.344;2022-12-11T02:39:28;1.83;;;0.55;;
59263;SDS011;45030;42.720;23.344;2022-12-11T02:41:53;1.33;;;0.63;;
59263;SDS011;45030;42.720;23.344;2022-12-11T02:44:26;2.28;;;1.00;;
59263;SDS011;45030;42.720;23.344;2022-12-11T02:46:52;1.88;;;1.00;;
59263;SDS011;45030;42.720;23.344;2022-12-11T02:49:18;3.13;;;1.08;;
59263;SDS011;45030;42.720;23.344;2022-12-11T02:51:44;3.60;;;1.08;;
59263;SDS011;45030;42.720;23.344;2022-12-11T02:54:13;1.45;;;0.75;;
59263;SDS011;45030;42.720;23.344;2022-12-11T02:56:42;2.13;;;0.90;;
59263;SDS011;45030;42.720;23.344;2022-12-11T02:59:10;2.85;;;1.00;;
59263;SDS011;45030;42.720;23.344;2022-12-11T03:01:37;0.75;;;0.75;;
59263;SDS011;45030;42.720;23.344;2022-12-11T03:04:02;1.50;;;0.90;;
59263;SDS011;45030;42.720;23.344;2022-12-11T03:06:31;3.97;;;2.22;;
59263;SDS011;45030;42.720;23.344;2022-12-11T03:08:59;2.60;;;1.70;;
59263;SDS011;45030;42.720;23.344;2022-12-11T03:11:24;2.25;;;1.50;;
59263;SDS011;45030;42.720;23.344;2022-12-11T03:13:50;2.58;;;0.98;;
59263;SDS011;45030;42.720;23.344;2022-12-11T03:16:23;1.45;;;1.00;;
59263;SDS011;45030;42.720;23.344;2022-12-11T03:21:32;1.67;;;0.88;;
59263;SDS011;45030;42.720;23.344;2022-12-11T03:24:04;1.00;;;0.60;;
59263;SDS011;45030;42.720;23.344;2022-12-11T03:26:31;0.77;;;0.57;;
59263;SDS011;45030;42.720;23.344;2022-12-11T03:29:06;2.53;;;1.25;;
59263;SDS011;45030;42.720;23.344;2022-12-11T03:31:41;1.88;;;1.00;;
59263;SDS011;45030;42.720;23.344;2022-12-11T03:34:18;0.73;;;0.70;;
59263;SDS011;45030;42.720;23.344;2022-12-11T03:36:45;3.03;;;0.90;;
59263;SDS011;45030;42.720;23.344;2022-12-11T03:39:14;2.75;;;1.10;;
59263;SDS011;45030;42.720;23.344;2022-12-11T03:41:40;2.47;;;1.10;;
59263;SDS011;45030;42.720;23.344;2022-12-11T03:44:07;1.00;;;0.80;;
59263;SDS011;45030;42.720;23.344;2022-12-11T03:46:34;0.85;;;0.60;;
59263;SDS011;45030;42.720;23.344;2022-12-11T03:49:01;2.65;;;1.10;;
59263;SDS011;45030;42.720;23.344;2022-12-11T03:51:28;1.70;;;0.98;;
59263;SDS011;45030;42.720;23.344;2022-12-11T03:53:53;2.55;;;0.90;;
59263;SDS011;45030;42.720;23.344;2022-12-11T03:56:19;1.35;;;0.95;;
59263;SDS011;45030;42.720;23.344;2022-12-11T03:58:45;2.35;;;1.00;;
59263;SDS011;45030;42.720;23.344;2022-12-11T04:01:10;1.45;;;0.60;;
59263;SDS011;45030;42.720;23.344;2022-12-11T04:03:36;1.08;;;0.80;;
59263;SDS011;45030;42.720;23.344;2022-12-11T04:06:01;1.30;;;0.50;;
59263;SDS011;45030;42.720;23.344;2022-12-11T04:08:27;1.08;;;0.60;;
59263;SDS011;45030;42.720;23.344;2022-12-11T04:10:52;1.25;;;0.70;;
59263;SDS011;45030;42.720;23.344;2022-12-11T04:13:38;2.58;;;1.30;;
59263;SDS011;45030;42.720;23.344;2022-12-11T04:16:03;5.25;;;2.88;;
59263;SDS011;45030;42.720;23.344;2022-12-11T04:18:28;2.63;;;1.20;;
59263;SDS011;45030;42.720;23.344;2022-12-11T04:21:12;2.78;;;1.45;;
59263;SDS011;45030;42.720;23.344;2022-12-11T04:23:56;2.33;;;1.17;;
59263;SDS011;45030;42.720;23.344;2022-12-11T04:26:40;2.35;;;1.10;;
59263;SDS011;45030;42.720;23.344;2022-12-11T04:29:05;3.17;;;1.17;;
59263;SDS011;45030;42.720;23.344;2022-12-11T04:31:31;3.42;;;1.05;;
59263;SDS011;45030;42.720;23.344;2022-12-11T04:33:56;1.58;;;1.05;;
59263;SDS011;45030;42.720;23.344;2022-12-11T04:36:22;1.95;;;1.20;;
59263;SDS011;45030;42.720;23.344;2022-12-11T04:38:47;3.70;;;1.23;;
59263;SDS011;45030;42.720;23.344;2022-12-11T04:41:13;2.10;;;0.85;;
59263;SDS011;45030;42.720;23.344;2022-12-11T04:43:39;1.67;;;1.10;;
59263;SDS011;45030;42.720;23.344;2022-12-11T04:46:12;3.10;;;1.10;;
59263;SDS011;45030;42.720;23.344;2022-12-11T04:48:38;1.80;;;1.10;;
59263;SDS011;45030;42.720;23.344;2022-12-11T04:51:04;2.28;;;1.63;;
59263;SDS011;45030;42.720;23.344;2022-12-11T04:53:29;3.33;;;1.10;;
59263;SDS011;45030;42.720;23.344;2022-12-11T04:55:54;1.58;;;0.98;;
59263;SDS011;45030;42.720;23.344;2022-12-11T04:58:20;2.92;;;0.95;;
59263;SDS011;45030;42.720;23.344;2022-12-11T05:00:45;1.63;;;0.80;;
59263;SDS011;45030;42.720;23.344;2022-12-11T05:03:11;4.32;;;0.95;;
59263;SDS011;45030;42.720;23.344;2022-12-11T05:05:37;1.63;;;1.23;;
59263;SDS011;45030;42.720;23.344;2022-12-11T05:08:02;1.73;;;1.00;;
59263;SDS011;45030;42.720;23.344;2022-12-11T05:10:27;0.88;;;0.68;;
59263;SDS011;45030;42.720;23.344;2022-12-11T05:12:52;3.40;;;0.68;;
59263;SDS011;45030;42.720;23.344;2022-12-11T05:15:18;1.60;;;0.60;;
59263;SDS011;45030;42.720;23.344;2022-12-11T05:17:43;2.30;;;0.90;;
59263;SDS011;45030;42.720;23.344;2022-12-11T05:20:08;2.13;;;0.90;;
59263;SDS011;45030;42.720;23.344;2022-12-11T05:22:34;2.08;;;1.10;;
59263;SDS011;45030;42.720;23.344;2022-12-11T05:24:59;1.13;;;0.70;;
59263;SDS011;45030;42.720;23.344;2022-12-11T05:27:25;1.23;;;0.70;;
59263;SDS011;45030;42.720;23.344;2022-12-11T05:29:50;2.05;;;0.90;;
59263;SDS011;45030;42.720;23.344;2022-12-11T05:32:16;3.22;;;1.00;;
59263;SDS011;45030;42.720;23.344;2022-12-11T05:34:41;1.23;;;0.73;;
59263;SDS011;45030;42.720;23.344;2022-12-11T05:37:08;0.95;;;0.50;;
59263;SDS011;45030;42.720;23.344;2022-12-11T05:39:33;2.80;;;0.85;;
59263;SDS011;45030;42.720;23.344;2022-12-11T05:42:00;1.65;;;0.80;;
59263;SDS011;45030;42.720;23.344;2022-12-11T05:44:25;2.15;;;0.90;;
59263;SDS011;45030;42.720;23.344;2022-12-11T05:46:51;1.67;;;0.90;;
59263;SDS011;45030;42.720;23.344;2022-12-11T05:49:16;2.13;;;0.85;;
59263;SDS011;45030;42.720;23.344;2022-12-11T05:51:41;2.13;;;1.05;;
59263;SDS011;45030;42.720;23.344;2022-12-11T05:54:08;2.38;;;1.02;;
59263;SDS011;45030;42.720;23.344;2022-12-11T05:56:34;1.33;;;0.80;;
59263;SDS011;45030;42.720;23.344;2022-12-11T05:59:00;2.70;;;1.30;;
59263;SDS011;45030;42.720;23.344;2022-12-11T06:01:31;2.67;;;1.17;;
59263;SDS011;45030;42.720;23.344;2022-12-11T06:03:57;1.95;;;0.88;;
59263;SDS011;45030;42.720;23.344;2022-12-11T06:06:23;2.63;;;1.15;;
59263;SDS011;45030;42.720;23.344;2022-12-11T06:08:50;1.58;;;0.90;;
59263;SDS011;45030;42.720;23.344;2022-12-11T06:11:15;2.38;;;1.05;;
59263;SDS011;45030;42.720;23.344;2022-12-11T06:13:42;1.55;;;1.00;;
59263;SDS011;45030;42.720;23.344;2022-12-11T06:16:09;4.00;;;1.60;;
59263;SDS011;45030;42.720;23.344;2022-12-11T06:18:38;2.35;;;1.20;;
59263;SDS011;45030;42.720;23.344;2022-12-11T06:21:10;3.63;;;1.75;;
59263;SDS011;45030;42.720;23.344;2022-12-11T06:23:36;4.00;;;1.55;;
59263;SDS011;45030;42.720;23.344;2022-12-11T06:26:02;2.42;;;1.20;;
59263;SDS011;45030;42.720;23.344;2022-12-11T06:28:27;2.95;;;1.00;;
59263;SDS011;45030;42.720;23.344;2022-12-11T06:30:53;5.05;;;2.30;;
59263;SDS011;45030;42.720;23.344;2022-12-11T06:33:18;2.03;;;1.48;;
59263;SDS011;45030;42.720;23.344;2022-12-11T06:35:43;1.98;;;1.27;;
59263;SDS011;45030;42.720;23.344;2022-12-11T06:38:08;3.92;;;1.05;;
59263;SDS011;45030;42.720;23.344;2022-12-11T06:40:34;2.78;;;1.42;;
59263;SDS011;45030;42.720;23.344;2022-12-11T06:42:59;5.13;;;1.33;;
59263;SDS011;45030;42.720;23.344;2022-12-11T06:45:25;2.50;;;0.98;;
59263;SDS011;45030;42.720;23.344;2022-12-11T06:47:50;3.25;;;1.20;;
59263;SDS011;45030;42.720;23.344;2022-12-11T06:50:15;1.10;;;0.75;;
59263;SDS011;45030;42.720;23.344;2022-12-11T06:52:40;3.80;;;0.63;;
59263;SDS011;45030;42.720;23.344;2022-12-11T06:55:06;1.70;;;1.10;;
59263;SDS011;45030;42.720;23.344;2022-12-11T06:57:31;2.80;;;1.27;;
59263;SDS011;45030;42.720;23.344;2022-12-11T06:59:57;4.53;;;1.25;;
59263;SDS011;45030;42.720;23.344;2022-12-11T07:02:22;2.63;;;0.82;;
59263;SDS011;45030;42.720;23.344;2022-12-11T07:04:47;1.58;;;0.90;;
59263;SDS011;45030;42.720;23.344;2022-12-11T07:07:12;3.80;;;1.13;;
59263;SDS011;45030;42.720;23.344;2022-12-11T07:09:38;2.58;;;1.42;;
59263;SDS011;45030;42.720;23.344;2022-12-11T07:12:04;3.05;;;1.70;;
59263;SDS011;45030;42.720;23.344;2022-12-11T07:14:30;3.25;;;1.90;;
59263;SDS011;45030;42.720;23.344;2022-12-11T07:16:56;7.82;;;4.22;;
59263;SDS011;45030;42.720;23.344;2022-12-11T07:19:21;2.45;;;1.50;;
59263;SDS011;45030;42.720;23.344;2022-12-11T07:21:46;3.92;;;2.03;;
59263;SDS011;45030;42.720;23.344;2022-12-11T07:24:12;3.58;;;1.50;;
59263;SDS011;45030;42.720;23.344;2022-12-11T07:26:37;4.30;;;1.85;;
59263;SDS011;45030;42.720;23.344;2022-12-11T07:29:02;2.95;;;1.70;;
59263;SDS011;45030;42.720;23.344;2022-12-11T07:31:28;3.47;;;1.50;;
59263;SDS011;45030;42.720;23.344;2022-12-11T07:33:54;1.42;;;0.90;;
59263;SDS011;45030;42.720;23.344;2022-12-11T07:36:20;1.90;;;1.15;;
59263;SDS011;45030;42.720;23.344;2022-12-11T07:38:45;4.03;;;2.10;;
59263;SDS011;45030;42.720;23.344;2022-12-11T07:41:11;3.65;;;1.60;;
59263;SDS011;45030;42.720;23.344;2022-12-11T07:43:36;1.20;;;0.90;;
59263;SDS011;45030;42.720;23.344;2022-12-11T07:46:02;5.25;;;1.83;;
59263;SDS011;45030;42.720;23.344;2022-12-11T07:48:28;6.35;;;2.28;;
59263;SDS011;45030;42.720;23.344;2022-12-11T07:50:54;8.35;;;2.08;;
59263;SDS011;45030;42.720;23.344;2022-12-11T07:53:19;10.20;;;3.05;;
59263;SDS011;45030;42.720;23.344;2022-12-11T07:55:44;6.75;;;2.58;;
59263;SDS011;45030;42.720;23.344;2022-12-11T07:58:09;4.13;;;2.03;;
59263;SDS011;45030;42.720;23.344;2022-12-11T08:00:35;7.53;;;2.78;;
59263;SDS011;45030;42.720;23.344;2022-12-11T08:03:00;6.60;;;2.80;;
59263;SDS011;45030;42.720;23.344;2022-12-11T08:05:25;3.88;;;1.65;;
59263;SDS011;45030;42.720;23.344;2022-12-11T08:07:50;2.20;;;1.48;;
59263;SDS011;45030;42.720;23.344;2022-12-11T08:10:15;4.85;;;1.90;;
59263;SDS011;45030;42.720;23.344;2022-12-11T08:12:41;3.22;;;1.80;;
59263;SDS011;45030;42.720;23.344;2022-12-11T08:15:06;6.03;;;2.40;;
59263;SDS011;45030;42.720;23.344;2022-12-11T08:17:32;5.38;;;1.50;;
59263;SDS011;45030;42.720;23.344;2022-12-11T08:19:57;7.38;;;2.10;;
59263;SDS011;45030;42.720;23.344;2022-12-11T08:22:22;5.82;;;1.60;;
59263;SDS011;45030;42.720;23.344;2022-12-11T08:24:47;2.85;;;1.50;;
59263;SDS011;45030;42.720;23.344;2022-12-11T08:27:13;3.30;;;1.70;;
59263;SDS011;45030;42.720;23.344;2022-12-11T08:29:38;2.35;;;1.10;;
59263;SDS011;45030;42.720;23.344;2022-12-11T08:32:03;3.13;;;1.80;;
59263;SDS011;45030;42.720;23.344;2022-12-11T08:34:28;3.90;;;1.75;;
59263;SDS011;45030;42.720;23.344;2022-12-11T08:36:54;3.72;;;1.58;;
59263;SDS011;45030;42.720;23.344;2022-12-11T08:39:19;4.43;;;1.92;;
59263;SDS011;45030;42.720;23.344;2022-12-11T08:41:44;2.22;;;1.50;;
59263;SDS011;45030;42.720;23.344;2022-12-11T08:44:11;7.93;;;2.05;;
59263;SDS011;45030;42.720;23.344;2022-12-11T08:46:36;2.10;;;1.20;;
59263;SDS011;45030;42.720;23.344;2022-12-11T08:49:02;1.33;;;0.82;;
59263;SDS011;45030;42.720;23.344;2022-12-11T08:51:27;2.28;;;1.38;;
59263;SDS011;45030;42.720;23.344;2022-12-11T08:53:54;2.45;;;1.40;;
59263;SDS011;45030;42.720;23.344;2022-12-11T08:56:19;3.40;;;1.55;;
59263;SDS011;45030;42.720;23.344;2022-12-11T08:58:45;3.28;;;1.95;;
59263;SDS011;45030;42.720;23.344;2022-12-11T09:01:12;4.05;;;1.90;;
59263;SDS011;45030;42.720;23.344;2022-12-11T09:03:37;4.45;;;2.13;;
59263;SDS011;45030;42.720;23.344;2022-12-11T09:06:05;4.72;;;2.50;;
59263;SDS011;45030;42.720;23.344;2022-12-11T09:08:30;4.07;;;2.20;;
59263;SDS011;45030;42.720;23.344;2022-12-11T09:10:55;5.03;;;2.38;;
59263;SDS011;45030;42.720;23.344;2022-12-11T09:13:26;3.47;;;2.20;;
59263;SDS011;45030;42.720;23.344;2022-12-11T09:15:51;4.05;;;2.25;;
59263;SDS011;45030;42.720;23.344;2022-12-11T09:18:16;4.45;;;2.58;;
59263;SDS011;45030;42.720;23.344;2022-12-11T09:20:41;6.07;;;2.25;;
59263;SDS011;45030;42.720;23.344;2022-12-11T09:23:06;3.97;;;2.63;;
59263;SDS011;45030;42.720;23.344;2022-12-11T09:25:32;5.93;;;2.30;;
59263;SDS011;45030;42.720;23.344;2022-12-11T09:27:57;4.38;;;2.85;;
59263;SDS011;45030;42.720;23.344;2022-12-11T09:30:22;6.20;;;3.55;;
59263;SDS011;45030;42.720;23.344;2022-12-11T09:32:48;10.05;;;6.18;;
59263;SDS011;45030;42.720;23.344;2022-12-11T09:35:13;3.17;;;2.00;;
59263;SDS011;45030;42.720;23.344;2022-12-11T09:37:38;6.40;;;3.97;;
59263;SDS011;45030;42.720;23.344;2022-12-11T09:40:04;3.13;;;1.70;;
59263;SDS011;45030;42.720;23.344;2022-12-11T09:44:55;2.15;;;1.13;;
59263;SDS011;45030;42.720;23.344;2022-12-11T09:49:48;2.20;;;1.40;;
59263;SDS011;45030;42.720;23.344;2022-12-11T09:52:18;3.38;;;1.50;;
59263;SDS011;45030;42.720;23.344;2022-12-11T09:54:52;2.33;;;1.42;;
59263;SDS011;45030;42.720;23.344;2022-12-11T10:09:54;2.50;;;1.30;;
59263;SDS011;45030;42.720;23.344;2022-12-11T10:12:27;3.78;;;1.42;;
59263;SDS011;45030;42.720;23.344;2022-12-11T10:15:04;3.78;;;1.67;;
59263;SDS011;45030;42.720;23.344;2022-12-11T10:17:35;3.47;;;1.80;;
59263;SDS011;45030;42.720;23.344;2022-12-11T10:20:06;2.35;;;1.30;;
59263;SDS011;45030;42.720;23.344;2022-12-11T10:22:38;2.22;;;1.48;;
59263;SDS011;45030;42.720;23.344;2022-12-11T10:25:12;3.50;;;1.45;;
59263;SDS011;45030;42.720;23.344;2022-12-11T10:35:05;2.58;;;1.80;;
59263;SDS011;45030;42.720;23.344;2022-12-11T10:37:30;3.58;;;1.95;;
59263;SDS011;45030;42.720;23.344;2022-12-11T10:39:56;2.60;;;1.60;;
59263;SDS011;45030;42.720;23.344;2022-12-11T10:42:21;3.30;;;1.40;;
59263;SDS011;45030;42.720;23.344;2022-12-11T10:47:21;5.13;;;3.90;;
59263;SDS011;45030;42.720;23.344;2022-12-11T10:50:00;8.98;;;4.40;;
59263;SDS011;45030;42.720;23.344;2022-12-11T10:52:34;3.90;;;2.85;;
59263;SDS011;45030;42.720;23.344;2022-12-11T10:57:28;3.08;;;1.95;;
59263;SDS011;45030;42.720;23.344;2022-12-11T10:59:55;5.03;;;2.42;;
59263;SDS011;45030;42.720;23.344;2022-12-11T11:02:22;3.42;;;1.35;;
59263;SDS011;45030;42.720;23.344;2022-12-11T11:04:48;3.55;;;2.28;;
59263;SDS011;45030;42.720;23.344;2022-12-11T11:07:17;8.32;;;3.47;;
59263;SDS011;45030;42.720;23.344;2022-12-11T11:09:43;7.25;;;3.83;;
59263;SDS011;45030;42.720;23.344;2022-12-11T11:12:25;5.57;;;3.13;;
59263;SDS011;45030;42.720;23.344;2022-12-11T11:15:04;5.97;;;3.50;;
59263;SDS011;45030;42.720;23.344;2022-12-11T11:17:30;3.90;;;1.90;;
59263;SDS011;45030;42.720;23.344;2022-12-11T11:19:56;4.25;;;1.73;;
59263;SDS011;45030;42.720;23.344;2022-12-11T11:22:23;2.80;;;1.58;;
59263;SDS011;45030;42.720;23.344;2022-12-11T11:24:55;4.05;;;2.25;;
59263;SDS011;45030;42.720;23.344;2022-12-11T11:29:55;4.25;;;2.67;;
59263;SDS011;45030;42.720;23.344;2022-12-11T11:32:30;7.03;;;2.58;;
59263;SDS011;45030;42.720;23.344;2022-12-11T11:38:01;4.78;;;3.10;;
59263;SDS011;45030;42.720;23.344;2022-12-11T11:40:29;6.32;;;2.58;;
59263;SDS011;45030;42.720;23.344;2022-12-11T11:45:30;3.28;;;1.98;;
59263;SDS011;45030;42.720;23.344;2022-12-11T11:50:24;4.20;;;2.40;;
59263;SDS011;45030;42.720;23.344;2022-12-11T11:52:57;3.47;;;2.40;;
59263;SDS011;45030;42.720;23.344;2022-12-11T11:55:43;8.82;;;3.00;;
59263;SDS011;45030;42.720;23.344;2022-12-11T12:00:36;4.72;;;2.60;;
59263;SDS011;45030;42.720;23.344;2022-12-11T12:05:39;5.75;;;2.15;;
59263;SDS011;45030;42.720;23.344;2022-12-11T12:08:16;2.28;;;1.35;;
59263;SDS011;45030;42.720;23.344;2022-12-11T12:10:47;2.35;;;1.60;;
59263;SDS011;45030;42.720;23.344;2022-12-11T12:15:42;5.68;;;2.90;;
59263;SDS011;45030;42.720;23.344;2022-12-11T12:25:46;2.90;;;2.22;;
59263;SDS011;45030;42.720;23.344;2022-12-11T12:30:50;4.65;;;3.10;;
59263;SDS011;45030;42.720;23.344;2022-12-11T12:36:02;3.35;;;2.60;;
59263;SDS011;45030;42.720;23.344;2022-12-11T12:38:36;2.28;;;2.08;;
59263;SDS011;45030;42.720;23.344;2022-12-11T12:49:00;12.18;;;6.78;;
59263;SDS011;45030;42.720;23.344;2022-12-11T12:51:26;9.10;;;4.72;;
59263;SDS011;45030;42.720;23.344;2022-12-11T12:53:53;6.05;;;4.78;;
59263;SDS011;45030;42.720;23.344;2022-12-11T12:56:21;8.32;;;6.93;;
59263;SDS011;45030;42.720;23.344;2022-12-11T12:58:47;6.80;;;4.45;;
59263;SDS011;45030;42.720;23.344;2022-12-11T13:01:30;5.18;;;4.68;;
59263;SDS011;45030;42.720;23.344;2022-12-11T13:04:00;6.37;;;4.00;;
59263;SDS011;45030;42.720;23.344;2022-12-11T13:08:57;7.07;;;5.68;;
59263;SDS011;45030;42.720;23.344;2022-12-11T13:11:30;9.75;;;5.00;;
59263;SDS011;45030;42.720;23.344;2022-12-11T13:19:38;7.13;;;3.58;;
59263;SDS011;45030;42.720;23.344;2022-12-11T13:22:18;4.28;;;3.30;;
59263;SDS011;45030;42.720;23.344;2022-12-11T13:24:48;3.88;;;3.33;;
59263;SDS011;45030;42.720;23.344;2022-12-11T13:27:39;4.35;;;3.00;;
59263;SDS011;45030;42.720;23.344;2022-12-11T13:32:31;3.95;;;3.17;;
59263;SDS011;45030;42.720;23.344;2022-12-11T13:34:57;2.65;;;2.45;;
59263;SDS011;45030;42.720;23.344;2022-12-11T13:39:55;5.63;;;4.00;;
59263;SDS011;45030;42.720;23.344;2022-12-11T13:42:31;5.60;;;4.25;;
59263;SDS011;45030;42.720;23.344;2022-12-11T13:44:57;7.63;;;4.88;;
59263;SDS011;45030;42.720;23.344;2022-12-11T13:47:22;7.28;;;5.43;;
59263;SDS011;45030;42.720;23.344;2022-12-11T13:49:49;6.30;;;4.72;;
59263;SDS011;45030;42.720;23.344;2022-12-11T13:52:22;8.10;;;4.88;;
59263;SDS011;45030;42.720;23.344;2022-12-11T13:54:51;5.13;;;4.53;;
59263;SDS011;45030;42.720;23.344;2022-12-11T13:57:23;10.70;;;6.28;;
59263;SDS011;45030;42.720;23.344;2022-12-11T13:59:55;5.18;;;4.32;;
59263;SDS011;45030;42.720;23.344;2022-12-11T14:02:25;5.53;;;3.72;;
59263;SDS011;45030;42.720;23.344;2022-12-11T14:04:52;6.20;;;4.22;;
59263;SDS011;45030;42.720;23.344;2022-12-11T14:07:20;7.10;;;6.15;;
59263;SDS011;45030;42.720;23.344;2022-12-11T14:09:47;5.07;;;4.28;;
59263;SDS011;45030;42.720;23.344;2022-12-11T14:12:16;8.40;;;6.00;;
59263;SDS011;45030;42.720;23.344;2022-12-11T14:14:44;11.82;;;5.63;;
59263;SDS011;45030;42.720;23.344;2022-12-11T14:17:13;15.98;;;9.95;;
59263;SDS011;45030;42.720;23.344;2022-12-11T14:19:39;6.50;;;4.50;;
59263;SDS011;45030;42.720;23.344;2022-12-11T14:22:05;8.95;;;6.03;;
59263;SDS011;45030;42.720;23.344;2022-12-11T14:24:31;9.85;;;7.68;;
59263;SDS011;45030;42.720;23.344;2022-12-11T14:26:57;9.10;;;5.13;;
59263;SDS011;45030;42.720;23.344;2022-12-11T14:29:26;5.10;;;4.60;;
59263;SDS011;45030;42.720;23.344;2022-12-11T14:31:53;4.78;;;4.20;;
59263;SDS011;45030;42.720;23.344;2022-12-11T14:34:21;6.05;;;4.00;;
59263;SDS011;45030;42.720;23.344;2022-12-11T14:36:48;4.72;;;4.30;;
59263;SDS011;45030;42.720;23.344;2022-12-11T14:39:25;7.63;;;5.25;;
59263;SDS011;45030;42.720;23.344;2022-12-11T14:44:17;9.00;;;5.20;;
59263;SDS011;45030;42.720;23.344;2022-12-11T14:47:44;6.82;;;5.20;;
59263;SDS011;45030;42.720;23.344;2022-12-11T14:49:40;5.20;;;3.42;;
59263;SDS011;45030;42.720;23.344;2022-12-11T14:52:18;5.47;;;4.68;;
59263;SDS011;45030;42.720;23.344;2022-12-11T14:54:48;7.40;;;5.95;;
59263;SDS011;45030;42.720;23.344;2022-12-11T14:57:19;4.95;;;4.05;;
59263;SDS011;45030;42.720;23.344;2022-12-11T14:59:45;3.97;;;3.65;;
59263;SDS011;45030;42.720;23.344;2022-12-11T15:02:22;4.80;;;4.40;;
59263;SDS011;45030;42.720;23.344;2022-12-11T15:07:52;7.00;;;5.00;;
59263;SDS011;45030;42.720;23.344;2022-12-11T15:10:22;6.72;;;4.13;;
59263;SDS011;45030;42.720;23.344;2022-12-11T15:12:47;4.90;;;4.10;;
59263;SDS011;45030;42.720;23.344;2022-12-11T15:15:14;6.43;;;5.28;;
59263;SDS011;45030;42.720;23.344;2022-12-11T15:17:40;5.68;;;3.97;;
59263;SDS011;45030;42.720;23.344;2022-12-11T15:20:06;5.45;;;3.88;;
59263;SDS011;45030;42.720;23.344;2022-12-11T15:22:32;4.05;;;3.63;;
59263;SDS011;45030;42.720;23.344;2022-12-11T15:24:58;5.78;;;4.07;;
59263;SDS011;45030;42.720;23.344;2022-12-11T15:27:34;8.52;;;5.75;;
59263;SDS011;45030;42.720;23.344;2022-12-11T15:30:01;7.93;;;6.32;;
59263;SDS011;45030;42.720;23.344;2022-12-11T15:32:26;7.60;;;5.53;;
59263;SDS011;45030;42.720;23.344;2022-12-11T15:34:52;9.52;;;5.95;;
59263;SDS011;45030;42.720;23.344;2022-12-11T15:37:25;7.25;;;5.53;;
59263;SDS011;45030;42.720;23.344;2022-12-11T15:39:52;5.77;;;3.90;;
59263;SDS011;45030;42.720;23.344;2022-12-11T15:42:20;6.32;;;5.05;;
59263;SDS011;45030;42.720;23.344;2022-12-11T15:44:47;7.43;;;4.40;;
59263;SDS011;45030;42.720;23.344;2022-12-11T15:47:20;7.82;;;6.20;;
59263;SDS011;45030;42.720;23.344;2022-12-11T15:49:46;9.30;;;5.47;;
59263;SDS011;45030;42.720;23.344;2022-12-11T15:52:11;8.57;;;6.25;;
59263;SDS011;45030;42.720;23.344;2022-12-11T15:54:36;10.52;;;8.75;;
59263;SDS011;45030;42.720;23.344;2022-12-11T15:57:02;7.97;;;4.65;;
59263;SDS011;45030;42.720;23.344;2022-12-11T15:59:28;8.52;;;6.72;;
59263;SDS011;45030;42.720;23.344;2022-12-11T16:01:54;8.60;;;6.38;;
59263;SDS011;45030;42.720;23.344;2022-12-11T16:04:19;10.45;;;7.50;;
59263;SDS011;45030;42.720;23.344;2022-12-11T16:06:44;9.05;;;6.30;;
59263;SDS011;45030;42.720;23.344;2022-12-11T16:09:11;11.05;;;8.20;;
59263;SDS011;45030;42.720;23.344;2022-12-11T16:11:36;11.23;;;8.68;;
59263;SDS011;45030;42.720;23.344;2022-12-11T16:14:01;12.63;;;8.23;;